Time;durP1;ratioP1;P1;durP2;ratioP2;P2;SDS_P1;SDS_P2;PMS_P1;PMS_P2;Temp;Humidity;BMP_temperature;BMP_pressure;BME280_temperature;BME280_humidity;BME280_pressure;Samples;Min_cycle;Max_cycle;Signal;HPM_P1;HPM_P2
2022/03/19 00:00:21;;;;;;;22.70;13.02;;;12.20;45.70;;;;;;2257170;57;21030;-66
2022/03/19 00:02:52;;;;;;;23.33;14.80;;;12.20;45.70;;;;;;2289722;55;20999;-64
2022/03/19 00:05:21;;;;;;;20.25;13.55;;;12.20;45.80;;;;;;2261148;55;21062;-64
2022/03/19 00:08:00;;;;;;;;;;;;;;;;;;;;;
2022/03/19 00:10:43;;;;;;;19.83;12.70;;;12.10;45.70;;;;;;2255791;55;21452;-66
2022/03/19 00:16:30;;;;;;;19.98;12.40;;;12.10;45.70;;;;;;2238839;56;21076;-64
2022/03/19 00:18:57;;;;;;;22.62;14.65;;;12.10;45.70;;;;;;2415156;54;20970;-65
2022/03/19 00:21:32;;;;;;;21.23;13.70;;;12.10;45.70;;;;;;2288439;55;20997;-64
2022/03/19 00:24:04;;;;;;;21.58;13.60;;;12.00;45.60;;;;;;2408306;54;21014;-64
2022/03/19 00:26:33;;;;;;;24.92;15.55;;;12.00;45.70;;;;;;2288178;55;20989;-66
2022/03/19 00:29:00;;;;;;;24.33;15.85;;;12.00;45.70;;;;;;2290291;55;21824;-65
2022/03/19 00:31:41;;;;;;;23.15;14.80;;;12.00;45.70;;;;;;2287031;55;21081;-65
2022/03/19 00:34:08;;;;;;;21.90;14.18;;;12.00;45.60;;;;;;2290378;55;20985;-65
2022/03/19 00:36:57;;;;;;;21.95;14.18;;;12.00;45.70;;;;;;2281999;55;21026;-66
2022/03/19 00:39:58;;;;;;;20.88;12.98;;;11.90;45.60;;;;;;2287915;55;20962;-64
2022/03/19 00:42:41;;;;;;;;;;;;;;;;;;;;;
2022/03/19 00:45:21;;;;;;;17.10;11.43;;;11.90;45.60;;;;;;2288571;55;21352;-65
2022/03/19 00:47:48;;;;;;;21.23;13.90;;;11.90;45.50;;;;;;2285110;55;20982;-66
2022/03/19 00:50:15;;;;;;;20.50;13.62;;;11.90;45.60;;;;;;2290005;55;21812;-66
2022/03/19 00:56:37;;;;;;;18.55;11.77;;;11.90;45.40;;;;;;2308579;54;21122;-65
2022/03/19 00:59:07;;;;;;;20.60;12.98;;;11.80;45.40;;;;;;2284462;55;21098;-63
2022/03/19 01:01:48;;;;;;;18.55;12.80;;;11.80;45.40;;;;;;2309291;55;20990;-64
2022/03/19 01:04:59;;;;;;;18.73;12.43;;;11.80;45.40;;;;;;2291906;55;21587;-64
2022/03/19 01:07:38;;;;;;;20.48;13.40;;;11.70;45.30;;;;;;2288318;55;20987;-66
2022/03/19 01:11:54;;;;;;;23.50;15.13;;;11.70;45.40;;;;;;2295388;54;21002;-65
2022/03/19 01:14:29;;;;;;;20.80;13.30;;;11.60;45.30;;;;;;2290899;55;21173;-65
2022/03/19 01:17:20;;;;;;;22.67;14.45;;;11.60;45.40;;;;;;2292056;55;21079;-64
2022/03/19 01:20:17;;;;;;;20.85;12.27;;;11.60;45.50;;;;;;2283741;55;21002;-64
2022/03/19 01:22:54;;;;;;;23.50;13.50;;;11.60;45.60;;;;;;2348640;54;21050;-65
2022/03/19 01:25:43;;;;;;;20.42;13.43;;;11.50;45.50;;;;;;2323464;54;21011;-63
2022/03/19 01:29:19;;;;;;;;;;;;;;;;;;;;;
2022/03/19 01:32:04;;;;;;;23.77;13.45;;;11.40;45.50;;;;;;2268324;55;20986;-64
2022/03/19 01:46:31;;;;;;;24.65;15.40;;;11.40;45.50;;;;;;2303398;54;20978;-66
2022/03/19 01:50:41;;;;;;;18.80;11.27;;;11.30;45.40;;;;;;2306880;54;27573;-67
2022/03/19 01:55:07;;;;;;;20.92;13.15;;;10.90;45.40;;;;;;2300271;55;20979;-64
2022/03/19 01:57:41;;;;;;;19.85;12.52;;;10.80;45.70;;;;;;2300468;54;21066;-66
2022/03/19 02:00:21;;;;;;;22.85;14.05;;;10.80;45.60;;;;;;2317474;54;21007;-67
2022/03/19 02:02:54;;;;;;;21.58;13.35;;;10.70;45.70;;;;;;2296844;55;21497;-65
2022/03/19 02:05:33;;;;;;;24.40;15.02;;;10.60;45.70;;;;;;2289836;55;21454;-65
2022/03/19 02:08:12;;;;;;;28.90;17.65;;;10.60;45.90;;;;;;2406572;54;20953;-65
2022/03/19 02:13:58;;;;;;;26.25;14.90;;;10.60;46.00;;;;;;2328981;55;21627;-66
2022/03/19 02:16:38;;;;;;;18.90;11.93;;;10.50;46.00;;;;;;2306216;55;21018;-66
2022/03/19 02:19:10;;;;;;;22.42;13.75;;;10.50;45.90;;;;;;2389690;54;20983;-66
2022/03/19 02:22:13;;;;;;;21.95;13.95;;;10.40;45.90;;;;;;2341630;54;21028;-64
2022/03/19 02:25:39;;;;;;;21.55;13.13;;;10.30;45.90;;;;;;2298015;55;20996;-66
2022/03/19 02:28:29;;;;;;;22.60;13.55;;;10.20;46.00;;;;;;2324669;54;20966;-64
2022/03/19 02:31:23;;;;;;;24.55;13.52;;;10.10;46.00;;;;;;2318463;54;21846;-64
2022/03/19 02:36:49;;;;;;;23.02;13.43;;;10.00;46.10;;;;;;2328043;54;20981;-66
2022/03/19 02:39:40;;;;;;;25.52;15.63;;;10.00;46.20;;;;;;2319259;54;21027;-64
2022/03/19 02:42:18;;;;;;;26.83;15.70;;;9.90;47.10;;;;;;2322767;55;21482;-65
2022/03/19 02:44:57;;;;;;;27.37;15.65;;;9.80;47.10;;;;;;2348121;53;21060;-66
2022/03/19 02:47:27;;;;;;;24.70;15.18;;;9.70;47.10;;;;;;2325024;54;21064;-66
2022/03/19 02:50:04;;;;;;;25.83;15.65;;;9.70;47.20;;;;;;2322044;54;20965;-65
2022/03/19 02:53:18;;;;;;;29.42;17.15;;;9.60;47.20;;;;;;2327789;55;20969;-66
2022/03/19 02:59:20;;;;;;;;;;;9.50;47.60;;;;;;2297901;54;21115;-66
2022/03/19 03:01:55;;;;;;;16.62;9.52;;;9.50;47.40;;;;;;2326275;53;20071;-65
2022/03/19 03:04:31;;;;;;;22.02;12.48;;;9.30;47.20;;;;;;2360548;54;20957;-65
2022/03/19 03:07:03;;;;;;;23.27;14.43;;;9.30;47.40;;;;;;2365347;53;21012;-64
2022/03/19 03:09:53;;;;;;;27.73;16.40;;;9.20;47.50;;;;;;2295264;54;21000;-66
2022/03/19 03:12:38;;;;;;;29.70;16.98;;;9.10;47.60;;;;;;2332394;53;20984;-64
2022/03/19 03:15:05;;;;;;;32.35;18.10;;;9.10;47.90;;;;;;2325073;54;20921;-65
2022/03/19 03:17:49;;;;;;;27.55;16.62;;;9.00;47.90;;;;;;2420824;53;20972;-66
2022/03/19 03:20:25;;;;;;;26.87;15.45;;;8.90;48.20;;;;;;2356413;53;21236;-64
2022/03/19 03:26:30;;;;;;;25.25;15.07;;;8.80;48.10;;;;;;2484563;53;21913;-65
2022/03/19 03:28:57;;;;;;;26.23;14.98;;;8.80;48.60;;;;;;2326843;55;21103;-65
2022/03/19 03:31:28;;;;;;;30.50;16.40;;;8.70;48.30;;;;;;2329334;54;20957;-63
2022/03/19 03:34:04;;;;;;;29.70;17.65;;;8.70;48.40;;;;;;2287041;53;21087;-66
2022/03/19 03:36:39;;;;;;;31.62;18.62;;;8.70;48.40;;;;;;2371112;53;21021;-64
2022/03/19 03:39:09;;;;;;;35.67;20.88;;;8.60;48.60;;;;;;2306882;55;20955;-64
2022/03/19 03:41:38;;;;;;;30.67;17.87;;;8.60;48.60;;;;;;2322163;54;20936;-63
2022/03/19 03:44:06;;;;;;;32.83;19.52;;;8.50;48.60;;;;;;2307142;54;21035;-63
2022/03/19 03:46:42;;;;;;;32.47;18.30;;;8.50;48.80;;;;;;2332107;54;21302;-66
2022/03/19 03:52:48;;;;;;;35.50;19.87;;;8.50;49.30;;;;;;2294173;58;21317;-65
2022/03/19 03:55:15;;;;;;;34.95;20.23;;;8.40;49.00;;;;;;2305059;55;21068;-63
2022/03/19 03:57:54;;;;;;;36.63;19.48;;;8.40;49.20;;;;;;2316058;55;21045;-66
2022/03/19 04:01:05;;;;;;;30.05;17.80;;;8.40;49.30;;;;;;2329961;54;21328;-64
2022/03/19 04:03:44;;;;;;;28.25;16.45;;;8.40;49.60;;;;;;2342209;53;20969;-64
2022/03/19 04:06:13;;;;;;;34.30;18.70;;;8.30;49.20;;;;;;2311750;54;21484;-66
2022/03/19 04:08:43;;;;;;;31.42;18.75;;;8.30;49.30;;;;;;2331415;54;21063;-64
2022/03/19 04:11:10;;;;;;;30.40;18.30;;;8.30;49.40;;;;;;2326177;55;21014;-65
2022/03/19 04:13:48;;;;;;;34.75;19.48;;;8.30;49.50;;;;;;2329273;54;20961;-66
2022/03/19 04:16:42;;;;;;;39.17;20.85;;;8.30;49.60;;;;;;2329103;54;20968;-63
2022/03/19 04:19:10;;;;;;;32.45;18.35;;;8.30;50.00;;;;;;2377573;54;20965;-66
2022/03/19 04:21:38;;;;;;;30.17;18.30;;;8.30;49.70;;;;;;2334695;53;21064;-66
2022/03/19 04:24:20;;;;;;;27.90;16.30;;;8.30;49.70;;;;;;2324498;54;20977;-65
2022/03/19 04:26:46;;;;;;;30.75;18.05;;;8.30;50.00;;;;;;2314694;54;21012;-65
2022/03/19 04:29:18;;;;;;;28.60;16.58;;;8.30;49.80;;;;;;2327841;54;21020;-66
2022/03/19 04:31:45;;;;;;;28.10;17.48;;;8.30;49.80;;;;;;2301551;55;20963;-64
2022/03/19 04:34:12;;;;;;;31.98;18.87;;;8.30;49.80;;;;;;2318858;54;20957;-65
2022/03/19 04:36:38;;;;;;;30.00;18.98;;;8.20;49.80;;;;;;2323505;55;20978;-65
2022/03/19 04:39:09;;;;;;;28.67;16.83;;;8.20;49.90;;;;;;2312470;55;20949;-66
2022/03/19 04:41:36;;;;;;;26.45;15.98;;;8.20;49.90;;;;;;2326569;54;21027;-65
2022/03/19 04:44:06;;;;;;;27.87;16.73;;;8.20;50.50;;;;;;2304516;54;21067;-66
2022/03/19 04:46:33;;;;;;;32.95;17.92;;;8.20;50.00;;;;;;2330732;54;20977;-65
2022/03/19 04:55:22;;;;;;;23.25;13.25;;;8.20;50.20;;;;;;2329556;54;21017;-66
2022/03/19 04:57:49;;;;;;;28.27;15.38;;;8.20;49.70;;;;;;2304680;55;21017;-66
2022/03/19 05:00:17;;;;;;;25.88;15.52;;;8.20;49.80;;;;;;2328190;54;21057;-66
2022/03/19 05:03:13;;;;;;;24.83;15.77;;;8.20;49.90;;;;;;2330210;55;21005;-63
2022/03/19 05:05:55;;;;;;;26.90;16.37;;;8.20;50.20;;;;;;2336596;53;20957;-64
2022/03/19 05:08:23;;;;;;;28.62;16.40;;;8.20;50.30;;;;;;2306770;53;21016;-66
2022/03/19 05:13:37;;;;;;;33.25;17.87;;;8.20;50.20;;;;;;2331888;53;20980;-65
2022/03/19 05:16:05;;;;;;;31.95;18.37;;;8.20;50.20;;;;;;2323387;54;20974;-64
2022/03/19 05:18:31;;;;;;;32.70;19.37;;;8.20;50.30;;;;;;2309284;55;20989;-65
2022/03/19 05:21:01;;;;;;;33.47;18.60;;;8.20;50.20;;;;;;2304346;55;20962;-66
2022/03/19 05:23:56;;;;;;;27.73;16.80;;;8.20;50.30;;;;;;2413020;55;21185;-64
2022/03/19 05:26:25;;;;;;;28.38;17.25;;;8.20;50.30;;;;;;2317595;54;21062;-66
2022/03/19 05:28:55;;;;;;;32.83;17.87;;;8.20;50.20;;;;;;2326045;54;21092;-64
2022/03/19 05:31:31;;;;;;;30.20;17.67;;;8.20;50.20;;;;;;2303809;55;21004;-65
2022/03/19 05:40:13;;;;;;;26.70;16.35;;;8.20;50.40;;;;;;2339697;53;21000;-66
2022/03/19 05:42:43;;;;;;;28.17;17.33;;;8.20;50.10;;;;;;2347417;53;21341;-66
2022/03/19 05:45:15;;;;;;;33.05;18.20;;;8.10;50.00;;;;;;2303830;55;21358;-63
2022/03/19 05:47:47;;;;;;;32.00;17.73;;;8.10;50.10;;;;;;2337608;53;20989;-65
2022/03/19 05:50:17;;;;;;;32.15;19.20;;;8.10;50.10;;;;;;2353287;53;21714;-66
2022/03/19 05:52:47;;;;;;;31.48;18.25;;;8.10;50.20;;;;;;2358958;53;20945;-65
2022/03/19 05:55:38;;;;;;;31.62;17.37;;;8.10;50.30;;;;;;2299635;55;20955;-64
2022/03/19 05:58:04;;;;;;;28.85;16.67;;;8.10;50.50;;;;;;2329044;55;20945;-64
2022/03/19 06:00:31;;;;;;;28.92;16.65;;;8.10;50.30;;;;;;2330121;54;20975;-64
2022/03/19 06:03:01;;;;;;;30.52;16.27;;;8.10;50.40;;;;;;2313710;54;20914;-64
2022/03/19 06:05:30;;;;;;;27.95;16.42;;;8.10;50.40;;;;;;2298736;55;21059;-66
2022/03/19 06:08:09;;;;;;;28.52;16.55;;;8.10;50.50;;;;;;2309464;55;21005;-65
2022/03/19 06:10:38;;;;;;;31.70;16.60;;;8.00;50.60;;;;;;2286058;56;20945;-66
2022/03/19 06:13:05;;;;;;;26.80;14.48;;;8.10;50.50;;;;;;2295359;55;20988;-65
2022/03/19 06:15:46;;;;;;;27.20;15.85;;;8.00;50.40;;;;;;2300214;54;20986;-64
2022/03/19 06:18:17;;;;;;;25.37;14.87;;;8.10;50.70;;;;;;2279227;54;20932;-66
2022/03/19 06:20:45;;;;;;;24.87;16.05;;;8.10;50.50;;;;;;2293593;54;21076;-63
2022/03/19 06:23:20;;;;;;;25.80;14.95;;;8.00;50.40;;;;;;2364567;55;20946;-66
2022/03/19 06:25:48;;;;;;;26.08;15.23;;;8.00;50.60;;;;;;2301684;54;21810;-66
2022/03/19 06:28:14;;;;;;;27.10;15.10;;;8.00;50.60;;;;;;2302346;55;21051;-65
2022/03/19 06:30:44;;;;;;;26.62;14.77;;;8.00;50.60;;;;;;2311214;54;20991;-66
2022/03/19 06:33:13;;;;;;;21.33;13.75;;;8.00;50.70;;;;;;2326346;54;21073;-66
2022/03/19 06:38:38;;;;;;;28.12;15.02;;;8.10;51.10;;;;;;2286091;54;21319;-64
2022/03/19 06:41:25;;;;;;;27.23;14.60;;;8.10;51.10;;;;;;2312949;54;20985;-66
2022/03/19 06:43:52;;;;;;;24.30;14.32;;;8.20;51.40;;;;;;2306057;54;21065;-66
2022/03/19 06:46:19;;;;;;;24.27;14.25;;;8.20;51.20;;;;;;2368914;54;21029;-65
2022/03/19 06:49:17;;;;;;;27.87;16.55;;;8.20;51.10;;;;;;2383883;54;21403;-63
2022/03/19 06:51:47;;;;;;;26.42;15.25;;;8.20;51.20;;;;;;2333128;54;21022;-65
2022/03/19 06:54:29;;;;;;;26.77;15.45;;;8.30;51.20;;;;;;2301337;54;21063;-64
2022/03/19 06:56:56;;;;;;;24.67;15.30;;;8.30;51.30;;;;;;2325824;54;20966;-64
2022/03/19 06:59:26;;;;;;;25.65;15.15;;;8.30;51.20;;;;;;2317908;53;21066;-65
2022/03/19 07:01:56;;;;;;;28.73;16.62;;;8.30;51.30;;;;;;2336794;55;21003;-64
2022/03/19 07:04:23;;;;;;;30.12;17.08;;;8.40;51.40;;;;;;2312180;54;21024;-64
2022/03/19 07:32:38;;;;;;;29.95;16.35;;;8.40;51.40;;;;;;2341700;54;21022;-65
2022/03/19 07:35:21;;;;;;;14.23;8.13;;;8.50;51.80;;;;;;2314102;54;21098;-63
2022/03/19 07:38:05;;;;;;;23.27;12.88;;;9.10;51.40;;;;;;2306802;53;21039;-65
2022/03/19 07:43:55;;;;;;;22.92;14.57;;;9.30;51.70;;;;;;2301687;58;20987;-65
2022/03/19 08:22:42;;;;;;;;;;;;;;;;;;;;;
2022/03/19 08:25:48;;;;;;;17.80;10.88;;;9.70;51.90;;;;;;2322641;53;20996;-66
2022/03/19 08:28:21;;;;;;;21.00;13.35;;;11.50;51.50;;;;;;2318913;53;20971;-65
2022/03/19 08:35:07;;;;;;;23.02;15.32;;;12.00;51.50;;;;;;2317893;54;20917;-64
2022/03/19 08:41:18;;;;;;;22.02;14.82;;;12.60;51.50;;;;;;2463410;52;21008;-65
2022/03/19 08:44:13;;;;;;;20.55;14.05;;;12.90;51.70;;;;;;2313015;54;21017;-66
2022/03/19 08:46:52;;;;;;;24.12;15.68;;;13.20;51.60;;;;;;2297554;55;20973;-65
2022/03/19 08:53:23;;;;;;;25.67;17.35;;;13.80;51.30;;;;;;2423973;57;21862;-65
2022/03/19 08:56:03;;;;;;;;;;;;;;;;;;;;;
2022/03/19 09:08:40;;;;;;;24.25;17.17;;;15.40;50.70;;;;;;2249647;56;21058;-68
2022/03/19 09:11:11;;;;;;;25.15;17.23;;;15.80;51.20;;;;;;2299405;54;21055;-66
2022/03/19 09:13:57;;;;;;;;;;;;;;;;;;;;;
2022/03/19 09:38:39;;;;;;;22.40;14.13;;;16.90;50.40;;;;;;2314231;54;21001;-66
2022/03/19 09:41:21;;;;;;;21.50;14.82;;;18.40;48.00;;;;;;2275701;55;21940;-67
2022/03/19 09:43:48;;;;;;;20.83;15.30;;;18.50;47.00;;;;;;2310389;55;21030;-66
2022/03/19 09:46:19;;;;;;;25.88;17.42;;;18.50;47.00;;;;;;2288391;54;20980;-68
2022/03/19 10:17:13;;;;;;;16.17;10.88;;;19.10;45.50;;;;;;2303828;56;21031;-68
2022/03/19 10:23:52;;;;;;;18.83;12.15;;;19.50;43.60;;;;;;2300266;54;21025;-67
2022/03/19 10:26:57;;;;;;;16.27;11.50;;;19.60;43.30;;;;;;2293405;55;20989;-67
2022/03/19 10:29:35;;;;;;;18.50;13.07;;;19.80;43.00;;;;;;2313458;55;20996;-69
2022/03/19 10:35:42;;;;;;;17.52;12.32;;;20.10;42.30;;;;;;2313930;54;20977;-68
2022/03/19 10:38:22;;;;;;;17.48;12.65;;;20.20;42.50;;;;;;2310329;54;20936;-68
2022/03/19 10:41:47;;;;;;;;;;;;;;;;;;;;;
2022/03/19 10:51:50;;;;;;;17.85;12.32;;;20.50;41.90;;;;;;2309467;54;21008;-69
2022/03/19 10:54:29;;;;;;;14.55;9.95;;;20.70;41.10;;;;;;2398931;54;21061;-68
2022/03/19 10:57:01;;;;;;;16.20;11.45;;;20.90;41.60;;;;;;2359506;53;21051;-67
2022/03/19 10:59:33;;;;;;;15.77;10.98;;;20.90;40.80;;;;;;2316862;54;21006;-68
2022/03/19 11:08:24;;;;;;;16.23;11.45;;;21.00;40.10;;;;;;2348195;53;20996;-67
2022/03/19 11:10:52;;;;;;;17.77;13.52;;;21.10;41.30;;;;;;2327282;53;21017;-67
2022/03/19 11:13:33;;;;;;;19.60;13.30;;;21.10;40.00;;;;;;2336291;54;21094;-67
2022/03/19 11:17:23;;;;;;;17.95;12.00;;;21.10;39.50;;;;;;2385490;53;21018;-66
2022/03/19 11:29:49;;;;;;;16.70;11.98;;;21.10;39.00;;;;;;2339173;53;20971;-67
2022/03/19 11:32:27;;;;;;;12.75;8.75;;;21.00;39.40;;;;;;2301608;53;21015;-68
2022/03/19 11:34:57;;;;;;;15.25;10.13;;;20.90;38.90;;;;;;2320377;54;20957;-70
2022/03/19 11:45:05;;;;;;;21.00;13.10;;;20.80;37.70;;;;;;2266206;56;21032;-70
2022/03/19 11:47:54;;;;;;;15.30;9.98;;;20.70;37.60;;;;;;2197407;56;21044;-69
2022/03/19 11:50:42;;;;;;;;;;;;;;;;;;;;;
2022/03/19 11:54:19;;;;;;;18.02;11.48;;;20.60;38.20;;;;;;2243695;59;21110;-69
2022/03/19 11:57:17;;;;;;;19.60;12.52;;;20.60;37.50;;;;;;2243238;56;21399;-69
2022/03/19 11:59:54;;;;;;;;;;;;;;;;;;;;;
2022/03/19 12:03:31;;;;;;;18.42;12.27;;;20.50;37.60;;;;;;2348484;55;21051;-72
2022/03/19 12:22:11;;;;;;;20.95;12.98;;;20.30;37.10;;;;;;2247449;56;21039;-67
2022/03/19 12:24:46;;;;;;;17.17;12.05;;;20.30;35.70;;;;;;2257270;56;21091;-71
2022/03/19 12:27:23;;;;;;;20.90;13.73;;;20.20;35.90;;;;;;2252370;55;21009;-67
2022/03/19 12:30:10;;;;;;;;;;;;;;;;;;;;;
2022/03/19 12:33:14;;;;;;;17.42;11.25;;;20.10;35.20;;;;;;2382935;54;20980;-68
2022/03/19 12:35:47;;;;;;;17.70;12.23;;;20.00;35.60;;;;;;2279562;56;20959;-67
2022/03/19 13:14:16;;;;;;;;;;;;;;;;;;;;;
2022/03/19 13:29:38;;;;;;;18.67;11.23;;;19.90;34.50;;;;;;2274116;53;24549;-68
2022/03/19 13:32:06;;;;;;;14.50;10.10;;;20.50;34.10;;;;;;2295905;55;21051;-70
2022/03/19 13:34:54;;;;;;;15.60;10.43;;;20.50;34.60;;;;;;2296571;55;21048;-68
2022/03/19 14:07:04;;;;;;;10.73;7.20;;;20.40;34.00;;;;;;2286540;54;24414;-71
2022/03/19 14:09:34;;;;;;;11.25;6.82;;;20.70;34.40;;;;;;2299154;56;20978;-70
2022/03/19 14:12:43;;;;;;;9.93;6.85;;;20.70;33.90;;;;;;2283717;55;20998;-69
2022/03/19 14:15:22;;;;;;;12.23;6.97;;;20.70;33.30;;;;;;2319571;54;21077;-70
2022/03/19 14:18:00;;;;;;;10.07;6.50;;;20.70;33.70;;;;;;2300106;56;21008;-70
2022/03/19 14:20:26;;;;;;;13.50;6.55;;;20.70;33.60;;;;;;2286268;54;20966;-69
2022/03/19 14:23:11;;;;;;;13.55;7.35;;;20.70;33.80;;;;;;2283919;55;20975;-72
2022/03/19 14:26:06;;;;;;;9.90;6.18;;;20.80;32.80;;;;;;2250740;56;20967;-67
2022/03/19 14:28:38;;;;;;;9.05;5.87;;;20.80;33.20;;;;;;2293894;54;21054;-72
2022/03/19 14:31:05;;;;;;;10.20;6.47;;;20.80;33.20;;;;;;2302817;55;21059;-74
2022/03/19 14:33:35;;;;;;;10.07;6.45;;;20.80;33.00;;;;;;2309078;56;21015;-74
2022/03/19 14:36:06;;;;;;;11.43;6.45;;;20.80;32.80;;;;;;2308599;55;21018;-69
2022/03/19 14:38:38;;;;;;;9.10;6.10;;;20.80;32.70;;;;;;2309561;56;20971;-68
2022/03/19 14:41:15;;;;;;;9.60;5.95;;;20.80;32.50;;;;;;2307635;56;20967;-68
2022/03/19 14:43:46;;;;;;;10.05;6.20;;;20.80;31.70;;;;;;2308511;56;20964;-70
2022/03/19 14:46:28;;;;;;;9.10;6.00;;;20.80;32.00;;;;;;2315462;54;21788;-68
2022/03/19 14:49:23;;;;;;;8.70;5.37;;;20.80;32.00;;;;;;2364894;54;20963;-68
2022/03/19 14:51:51;;;;;;;9.13;5.53;;;20.80;31.40;;;;;;2258963;55;21042;-66
2022/03/19 14:55:05;;;;;;;8.82;5.57;;;20.80;31.90;;;;;;2289034;55;21032;-67
2022/03/19 14:57:35;;;;;;;9.68;5.35;;;20.80;30.80;;;;;;2284883;55;20995;-69
2022/03/19 15:05:09;;;;;;;5.40;3.40;;;20.70;31.20;;;;;;2310072;54;20935;-71
2022/03/19 15:07:39;;;;;;;6.82;4.35;;;20.60;31.40;;;;;;2273616;55;21062;-69
2022/03/19 15:10:11;;;;;;;7.62;4.30;;;20.60;31.30;;;;;;2297065;56;22530;-68
2022/03/19 15:12:46;;;;;;;7.70;4.22;;;20.60;31.00;;;;;;2274398;56;21046;-68
2022/03/19 15:15:47;;;;;;;7.70;4.37;;;20.50;30.70;;;;;;2273416;55;21000;-70
2022/03/19 15:18:17;;;;;;;7.15;3.87;;;20.40;30.60;;;;;;2312900;55;21086;-68
2022/03/19 15:20:44;;;;;;;7.47;4.28;;;20.30;30.80;;;;;;2307942;54;20987;-71
2022/03/19 15:23:17;;;;;;;6.62;4.25;;;20.30;30.60;;;;;;2268906;54;20959;-67
2022/03/19 15:25:57;;;;;;;7.20;3.87;;;20.20;30.00;;;;;;2297402;55;21004;-68
2022/03/19 15:28:28;;;;;;;10.90;4.07;;;20.00;29.60;;;;;;2279419;55;20985;-66
2022/03/19 15:30:55;;;;;;;6.05;3.47;;;19.90;29.80;;;;;;2291439;56;20943;-68
2022/03/19 15:37:33;;;;;;;5.07;3.15;;;19.50;29.60;;;;;;2299349;55;20084;-66
2022/03/19 15:40:11;;;;;;;7.32;3.50;;;19.20;29.20;;;;;;2292667;55;20990;-69
2022/03/19 15:43:19;;;;;;;6.93;3.67;;;19.00;29.60;;;;;;2277361;55;21824;-70
2022/03/19 15:46:05;;;;;;;;;;;;;;;;;;;;;
2022/03/19 15:48:38;;;;;;;9.93;3.80;;;18.60;29.50;;;;;;2293995;56;21016;-67
2022/03/19 15:51:26;;;;;;;6.97;3.87;;;18.40;29.70;;;;;;2274580;55;21041;-66
2022/03/19 15:53:54;;;;;;;7.35;4.10;;;18.30;29.30;;;;;;2293109;56;20947;-68
2022/03/19 15:56:57;;;;;;;6.22;3.55;;;18.10;29.50;;;;;;2293259;55;21051;-66
2022/03/19 15:59:31;;;;;;;6.07;3.40;;;18.00;29.20;;;;;;2267333;55;21036;-67
2022/03/19 16:01:58;;;;;;;6.35;3.50;;;17.80;29.30;;;;;;2329095;54;20916;-66
2022/03/19 16:08:18;;;;;;;5.87;3.03;;;17.60;29.20;;;;;;2308767;54;21007;-69
2022/03/19 16:10:46;;;;;;;7.40;3.62;;;17.40;29.20;;;;;;2285689;55;20984;-67
2022/03/19 16:13:19;;;;;;;5.82;3.20;;;17.20;29.40;;;;;;2283388;56;20944;-66
2022/03/19 16:28:41;;;;;;;4.95;2.67;;;17.20;29.10;;;;;;2275441;55;21679;-68
2022/03/19 16:31:13;;;;;;;4.05;1.87;;;17.00;29.10;;;;;;2278648;55;21043;-65
2022/03/19 16:33:42;;;;;;;4.65;2.25;;;16.50;29.60;;;;;;2252209;56;20983;-64
2022/03/19 16:36:12;;;;;;;4.20;2.28;;;16.30;29.50;;;;;;2282966;56;20964;-68
2022/03/19 16:38:45;;;;;;;7.25;2.50;;;16.20;29.60;;;;;;2288336;55;21121;-70
2022/03/19 16:41:13;;;;;;;5.75;2.20;;;16.10;29.50;;;;;;2227464;57;21133;-68
2022/03/19 16:47:29;;;;;;;5.10;2.47;;;16.00;29.40;;;;;;2242359;56;21104;-67
2022/03/19 16:50:33;;;;;;;5.62;2.40;;;15.90;29.30;;;;;;2242254;56;21517;-66
2022/03/19 16:53:02;;;;;;;4.45;2.15;;;15.80;29.50;;;;;;2234921;56;21903;-67
2022/03/19 16:55:44;;;;;;;5.20;2.47;;;15.70;29.60;;;;;;2225322;56;21026;-65
2022/03/19 16:58:14;;;;;;;6.75;2.37;;;15.60;29.30;;;;;;2259054;55;20996;-65
2022/03/19 17:00:43;;;;;;;;;;;15.50;29.50;;;;;;2267703;55;20979;-65
2022/03/19 17:03:14;;;;;;;6.05;2.22;;;15.40;29.40;;;;;;2302402;54;20076;-65
2022/03/19 17:05:41;;;;;;;4.28;2.15;;;15.40;29.60;;;;;;2239224;56;20979;-66
2022/03/19 17:08:08;;;;;;;5.97;2.15;;;15.30;29.50;;;;;;2322636;55;21346;-65
2022/03/19 17:10:38;;;;;;;4.30;2.00;;;15.20;29.50;;;;;;2281684;54;21129;-68
2022/03/19 17:13:15;;;;;;;4.03;2.00;;;15.10;29.50;;;;;;2246356;57;20987;-67
2022/03/19 17:15:45;;;;;;;4.78;2.12;;;15.10;29.50;;;;;;2239521;55;21073;-67
2022/03/19 17:18:12;;;;;;;4.55;2.10;;;15.00;29.50;;;;;;2265281;55;20959;-67
2022/03/19 17:20:41;;;;;;;4.18;1.90;;;14.90;29.40;;;;;;2343400;55;25658;-67
2022/03/19 17:23:20;;;;;;;4.75;2.15;;;14.80;29.40;;;;;;2264686;55;21030;-64
2022/03/19 17:26:08;;;;;;;4.53;1.98;;;14.80;29.20;;;;;;2263638;55;21003;-65
2022/03/19 17:28:38;;;;;;;5.10;2.20;;;14.60;29.00;;;;;;2264651;55;20975;-64
2022/03/19 17:31:14;;;;;;;4.95;1.58;;;14.50;29.30;;;;;;2264275;56;20978;-66
2022/03/19 17:33:46;;;;;;;4.20;1.90;;;14.50;29.30;;;;;;2289373;55;20987;-65
2022/03/19 17:36:12;;;;;;;3.75;1.80;;;14.40;29.20;;;;;;2278261;55;20949;-68
2022/03/19 17:38:39;;;;;;;4.53;1.90;;;14.30;29.20;;;;;;2250301;55;20990;-65
2022/03/19 17:41:12;;;;;;;4.50;1.90;;;14.20;29.10;;;;;;2254410;56;21123;-67
2022/03/19 17:43:39;;;;;;;4.37;2.15;;;14.10;29.00;;;;;;2260172;54;20981;-66
2022/03/19 17:46:11;;;;;;;4.43;1.73;;;14.00;29.10;;;;;;2298103;54;21042;-65
2022/03/19 17:48:38;;;;;;;3.72;1.73;;;13.90;29.00;;;;;;2284657;55;21026;-65
2022/03/19 17:51:16;;;;;;;6.60;2.25;;;13.90;29.10;;;;;;2284432;55;20953;-67
2022/03/19 17:53:54;;;;;;;5.03;1.92;;;13.80;28.90;;;;;;2278236;55;21041;-64
2022/03/19 17:56:21;;;;;;;4.57;1.62;;;13.70;29.00;;;;;;2271455;56;21048;-67
2022/03/19 17:58:52;;;;;;;3.42;1.65;;;13.70;29.10;;;;;;2289325;56;21332;-67
2022/03/19 18:01:20;;;;;;;4.65;2.00;;;13.60;29.10;;;;;;2289734;56;20993;-67
2022/03/19 18:03:52;;;;;;;3.92;1.60;;;13.50;29.10;;;;;;2289887;55;21476;-66
2022/03/19 18:06:19;;;;;;;;;;;13.40;29.00;;;;;;2285635;55;21014;-66
2022/03/19 18:08:48;;;;;;;4.10;1.87;;;13.40;29.20;;;;;;2287706;56;20060;-64
2022/03/19 18:11:16;;;;;;;3.50;1.62;;;13.30;29.20;;;;;;2289693;56;21021;-66
2022/03/19 18:13:43;;;;;;;3.85;1.62;;;13.30;29.20;;;;;;2298495;54;21355;-67
2022/03/19 18:16:09;;;;;;;5.90;1.92;;;13.20;29.20;;;;;;2291813;54;21007;-65
2022/03/19 18:18:39;;;;;;;3.03;1.30;;;13.10;29.20;;;;;;2289150;55;21279;-67
2022/03/19 18:21:06;;;;;;;3.72;1.65;;;13.10;29.30;;;;;;2258161;55;21022;-71
2022/03/19 18:23:34;;;;;;;4.65;1.95;;;13.00;29.30;;;;;;2286242;56;21017;-65
2022/03/19 18:26:01;;;;;;;5.03;2.03;;;13.00;29.50;;;;;;2287822;56;20973;-67
2022/03/19 18:28:30;;;;;;;5.40;2.47;;;13.00;29.60;;;;;;2325791;54;21510;-67
2022/03/19 18:30:57;;;;;;;9.65;4.45;;;12.90;29.60;;;;;;2297334;54;21079;-65
2022/03/19 18:33:24;;;;;;;7.47;3.42;;;12.90;29.70;;;;;;2284482;55;20951;-67
2022/03/19 18:35:51;;;;;;;8.43;2.80;;;12.80;29.70;;;;;;2336296;55;21093;-67
2022/03/19 18:38:18;;;;;;;5.60;2.40;;;12.80;29.80;;;;;;2328425;54;20995;-65
2022/03/19 18:40:48;;;;;;;4.45;1.70;;;12.80;29.90;;;;;;2288743;54;21419;-67
2022/03/19 18:43:15;;;;;;;4.97;1.90;;;12.80;29.90;;;;;;2318676;54;20998;-67
2022/03/19 18:45:42;;;;;;;4.68;2.03;;;12.70;29.90;;;;;;2290847;56;20950;-67
2022/03/19 18:48:09;;;;;;;5.28;2.25;;;12.70;29.90;;;;;;2275143;55;21013;-64
2022/03/19 18:50:36;;;;;;;4.43;2.00;;;12.70;30.00;;;;;;2287088;56;21049;-65
2022/03/19 18:53:03;;;;;;;4.32;1.83;;;12.70;30.00;;;;;;2314811;54;21031;-67
2022/03/19 18:56:22;;;;;;;4.43;1.85;;;12.70;30.00;;;;;;2277052;55;21029;-65
2022/03/19 18:58:49;;;;;;;3.90;1.65;;;12.70;30.00;;;;;;2372872;54;20997;-66
2022/03/19 19:01:17;;;;;;;6.05;1.75;;;12.60;30.00;;;;;;2267475;56;20965;-67
2022/03/19 19:04:11;;;;;;;4.30;1.85;;;12.60;30.70;;;;;;2275726;55;21470;-65
2022/03/19 19:06:53;;;;;;;4.70;1.80;;;12.60;30.00;;;;;;2259017;56;21387;-66
2022/03/19 19:09:20;;;;;;;5.03;2.10;;;12.60;30.20;;;;;;2291578;55;21033;-66
2022/03/19 19:11:47;;;;;;;3.78;1.80;;;12.60;30.30;;;;;;2278564;55;20946;-65
2022/03/19 19:14:14;;;;;;;4.30;2.15;;;12.50;30.40;;;;;;2282259;55;20981;-66
2022/03/19 19:16:43;;;;;;;5.43;1.98;;;12.50;30.40;;;;;;2288380;54;21276;-65
2022/03/19 19:19:12;;;;;;;3.87;2.12;;;12.50;31.20;;;;;;2248469;57;20975;-66
2022/03/19 19:21:39;;;;;;;5.30;2.17;;;12.50;30.70;;;;;;2246246;55;20969;-66
2022/03/19 19:24:12;;;;;;;3.80;1.98;;;12.50;30.70;;;;;;2290107;56;21043;-68
2022/03/19 19:28:17;;;;;;;3.85;1.80;;;12.50;30.80;;;;;;2302743;54;21095;-66
2022/03/19 19:30:52;;;;;;;3.65;1.83;;;12.50;31.00;;;;;;2276626;55;21050;-66
2022/03/19 19:33:24;;;;;;;5.22;2.22;;;12.40;31.00;;;;;;2285116;56;20998;-65
2022/03/19 19:35:51;;;;;;;4.80;2.60;;;12.40;31.10;;;;;;2291844;55;21356;-65
2022/03/19 19:38:19;;;;;;;5.55;2.45;;;12.40;31.20;;;;;;2326202;54;21026;-65
2022/03/19 19:40:54;;;;;;;4.78;2.35;;;12.40;31.30;;;;;;2285468;55;20965;-66